Grefrath-Niershorst Airport

EDLF · Noordrijn-Westfalen, Duitsland

METAR historie EDLF · Grefrath-Niershorst Airport

Hieronder zie je METAR's van de afgelopen dagen. Kies een jaar om door oudere METAR's te bladeren, vanaf het jaar 2007.

27 februari 2024

Tijd Code Weer Temp. Zicht Plafond Wind METAR/SPECI
21:50
I
1 °C 3,8 km - 290° 290° 3 kt METAR EDLN 272050Z AUTO 29003KT 3800 // NCD 01/00 Q1020
21:20
I
1 °C 3,6 km - 300° 300° 1 kt METAR EDLN 272020Z AUTO 30001KT 3600 // NCD 01/01 Q1019
20:50
M
2 °C 5 km - Var Var 1 kt METAR EDLN 271950Z AUTO VRB01KT 5000 // NCD 02/01 Q1019
20:20
V
3 °C 8 km - 310° 310° 4 kt METAR EDLN 271920Z 31004KT 8000 NSC 03/02 Q1019
19:50
V
3 °C 10 km+ - 340° 340° 3 kt METAR EDLN 271850Z 34003KT CAVOK 03/02 Q1018
19:20
V
3 °C 10 km+ - 320° 320° 6 kt METAR EDLN 271820Z 32006KT CAVOK 03/02 Q1018
18:50
V
4 °C 10 km+ - 310° 310° 7 kt METAR EDLN 271750Z 31007KT CAVOK 04/02 Q1018
18:20
V
5 °C 10 km+ - 310° 310° 8 kt METAR EDLN 271720Z 31008KT CAVOK 05/02 Q1018
17:50
V
5 °C 10 km+ - 330° 330° 6 kt METAR EDLN 271650Z 33006KT CAVOK 05/03 Q1017
17:20
V
6 °C 10 km+ - 320° 320° 7 kt METAR EDLN 271620Z 32007KT CAVOK 06/03 Q1017
16:50
V
7 °C 10 km+ - 320° 320° 7 kt METAR EDLN 271550Z 32007KT 9999 FEW018 07/03 Q1017
16:20
V
7 °C 10 km+ - 310° 310° 7 kt METAR EDLN 271520Z 31007KT 9999 FEW017 07/03 Q1017
15:50
V
7 °C 10 km+ - 320° 320° 8 kt METAR EDLN 271450Z 32008KT 9999 FEW017 07/03 Q1017
15:20
V
7 °C 10 km+ - 320° 320° 8 kt METAR EDLN 271420Z 32008KT 9999 FEW015 07/03 Q1017
14:50
V
7 °C 10 km+ - 320° 320° 6 kt METAR EDLN 271350Z 32006KT 9999 SCT016 07/04 Q1017
14:20
V
6 °C 10 km+ - 350° 350° 5 kt METAR EDLN 271320Z 35005KT 310V090 9999 SCT015 06/03 Q1017
13:50
M
6 °C 10 km+ 1.400 ft 350° 350° 6 kt METAR EDLN 271250Z 35006KT 9999 BKN014 06/03 Q1018
13:20
M
6 °C 10 km+ 1.300 ft 030° 030° 6 kt METAR EDLN 271220Z 03006KT 360V080 9999 OVC013 06/03 Q1018
12:50
M
6 °C 9 km 1.300 ft 360° 360° 7 kt METAR EDLN 271150Z 36007KT 330V040 9000 OVC013 06/03 Q1018
12:20
M
6 °C 9 km 1.300 ft 360° 360° 6 kt METAR EDLN 271120Z 36006KT 320V040 9000 BKN013 06/03 Q1018
11:50
M
6 °C 10 km+ 1.400 ft 360° 360° 7 kt METAR EDLN 271050Z 36007KT 340V040 9999 BKN014 06/03 Q1018
11:20
M
6 °C 10 km+ 1.300 ft 020° 020° 7 kt METAR EDLN 271020Z 02007KT 350V050 9999 OVC013 06/03 Q1018
10:50
M
6 °C 9 km 1.200 ft 040° 040° 6 kt METAR EDLN 270950Z 04006KT 360V080 9000 BKN012 06/03 Q1017
10:20
M
6 °C 10 km+ 1.100 ft 040° 040° 6 kt METAR EDLN 270920Z 04006KT 010V090 9999 BKN011 06/03 Q1017
09:50
M
5 °C 10 km+ 1.100 ft 360° 360° 5 kt METAR EDLN 270850Z 36005KT 9999 OVC011 05/03 Q1017
09:20
M
5 °C 10 km+ 1.100 ft 350° 350° 5 kt METAR EDLN 270820Z 35005KT 9999 OVC011 05/03 Q1017
08:50
M
5 °C 10 km+ 1.200 ft 340° 340° 6 kt METAR EDLN 270750Z 34006KT 320V020 9999 OVC012 05/03 Q1016
08:20
M
5 °C 9 km 1.200 ft 340° 340° 4 kt METAR EDLN 270720Z 34004KT 9000 OVC012 05/03 Q1016
07:50
M
5 °C 9 km 1.300 ft 320° 320° 4 kt METAR EDLN 270650Z 32004KT 9000 BKN013 05/03 Q1016
07:20
V
5 °C 10 km+ 9.200 ft 350° 350° 4 kt METAR EDLN 270620Z AUTO 35004KT 9999 // FEW013/// OVC092/// 05/03 Q1016
06:50
V
5 °C 10 km+ 9.500 ft 010° 010° 4 kt METAR EDLN 270550Z AUTO 01004KT 350V050 9999 // FEW013/// OVC095/// 05/03 Q1015
06:20
V
5 °C 10 km+ 9.800 ft 010° 010° 4 kt METAR EDLN 270520Z AUTO 01004KT 330V040 9999 // FEW013/// OVC098/// 05/03 Q1015
05:50
V
5 °C 10 km+ 9.900 ft 020° 020° 5 kt METAR EDLN 270450Z AUTO 02005KT 330V050 9999 // SCT075/// OVC099/// 05/03 Q1015
05:20
V
5 °C 10 km+ 7.000 ft 360° 360° 6 kt METAR EDLN 270420Z AUTO 36006KT 330V040 9999 // BKN070/// OVC100/// 05/03 Q1014
04:50
V
5 °C 10 km+ 6.200 ft 360° 360° 4 kt METAR EDLN 270350Z AUTO 36004KT 9999 // FEW016/// OVC062/// 05/03 Q1014
04:20
V
5 °C 10 km+ 4.300 ft 350° 350° 6 kt METAR EDLN 270320Z AUTO 35006KT 9999 // FEW017/// BKN043/// OVC058/// 05/03 Q1014
03:50
V
5 °C 10 km+ 4.400 ft 340° 340° 6 kt METAR EDLN 270250Z AUTO 34006KT 9999 // SCT017/// BKN044/// OVC052/// 05/03 Q1014
03:20
V
6 °C 10 km+ 4.400 ft 010° 010° 6 kt METAR EDLN 270220Z AUTO 01006KT 340V040 9999 // FEW018/// OVC044/// 06/03 Q1014
02:50
V
5 °C 9 km 4.200 ft 010° 010° 6 kt METAR EDLN 270150Z AUTO 01006KT 9000 // BKN042/// OVC056/// 05/04 Q1014
02:20
V
6 °C 10 km+ 4.300 ft 010° 010° 6 kt METAR EDLN 270120Z AUTO 01006KT 350V050 9999 // BKN043/// OVC055/// 06/03 Q1013
01:50
V
6 °C 10 km+ 4.100 ft 010° 010° 5 kt METAR EDLN 270050Z AUTO 01005KT 340V040 9999 // OVC041/// 06/04 Q1013
01:20
V
5 °C 10 km+ 4.000 ft 360° 360° 5 kt METAR EDLN 270020Z AUTO 36005KT 330V040 9999 // FEW012/// OVC040/// 05/04 Q1013
00:50
M
5 °C 10 km+ 1.200 ft 350° 350° 6 kt METAR EDLN 262350Z AUTO 35006KT 9999 // OVC012/// 05/04 Q1013
00:20
M
6 °C 10 km+ 1.200 ft 350° 350° 6 kt METAR EDLN 262320Z AUTO 35006KT 9999 // OVC012/// 06/04 Q1013

26 februari 2024

Tijd Code Weer Temp. Zicht Plafond Wind METAR/SPECI
23:50
M
6 °C 10 km+ 1.400 ft 360° 360° 7 kt METAR EDLN 262250Z AUTO 36007KT 330V030 9999 // SCT012/// OVC014/// 06/04 Q1012
23:20
M
6 °C 10 km+ 1.400 ft 350° 350° 7 kt METAR EDLN 262220Z AUTO 35007KT 9999 // OVC014/// 06/04 Q1012
22:50
M
6 °C 10 km+ 1.400 ft 360° 360° 8 kt METAR EDLN 262150Z AUTO 36008KT 330V030 9999 // BKN014/// BKN016/// OVC042/// 06/04 Q1012
22:20
V
6 °C 10 km+ 4.000 ft 350° 350° 8 kt METAR EDLN 262120Z AUTO 35008KT 9999 // FEW015/// SCT018/// OVC040/// 06/04 Q1011
21:50
V
6 °C 10 km+ 4.000 ft 360° 360° 6 kt METAR EDLN 262050Z AUTO 36006KT 330V030 9999 // FEW020/// OVC040/// 06/04 Q1011
21:20
V
6 °C 10 km+ 4.100 ft 360° 360° 7 kt METAR EDLN 262020Z AUTO 36007KT 330V030 9999 // FEW020/// OVC041/// 06/04 Q1010
20:50
V
6 °C 10 km+ 4.000 ft 350° 350° 6 kt METAR EDLN 261950Z AUTO 35006KT 9999 // FEW020/// OVC040/// 06/04 Q1010
20:20
V
6 °C 10 km+ 3.600 ft 010° 010° 7 kt METAR EDLN 261920Z 01007KT 330V040 9999 DZ SCT019 BKN036 OVC041 06/04 Q1009
19:50
V
6 °C 10 km+ 3.700 ft 010° 010° 8 kt METAR EDLN 261850Z 01008KT 9999 -RA FEW018 SCT030 OVC037 06/04 Q1009
19:20
V
6 °C 10 km+ 3.200 ft 010° 010° 8 kt METAR EDLN 261820Z 01008KT 340V040 9999 -RA FEW018 SCT021 OVC032 06/04 Q1008
18:50
V
6 °C 10 km+ 3.400 ft 010° 010° 9 kt METAR EDLN 261750Z 01009KT 350V050 9999 FEW022 OVC034 06/04 Q1007
18:20
V
6 °C 10 km+ 3.600 ft 010° 010° 9 kt METAR EDLN 261720Z 01009KT 9999 FEW019 OVC036 06/04 Q1007
17:50
V
6 °C 10 km+ 3.600 ft 010° 010° 8 kt METAR EDLN 261650Z 01008KT 340V040 9999 FEW025 OVC036 06/04 Q1006
17:20
V
7 °C 10 km+ 3.700 ft 010° 010° 7 kt METAR EDLN 261620Z 01007KT 340V040 9999 FEW023 OVC037 07/04 Q1006
16:50
V
7 °C 10 km+ 3.500 ft 010° 010° 6 kt METAR EDLN 261550Z 01006KT 340V040 9999 FEW019 OVC035 07/04 Q1005
16:20
V
7 °C 10 km+ 3.100 ft 020° 020° 7 kt METAR EDLN 261520Z 02007KT 350V050 9999 OVC031 07/04 Q1005
15:50
M
7 °C 10 km+ 3.000 ft 020° 020° 6 kt METAR EDLN 261450Z 02006KT 9999 -RA OVC030 07/05 Q1004
15:20
M
7 °C 10 km+ 2.700 ft 010° 010° 6 kt METAR EDLN 261420Z 01006KT 9999 -RA FEW010 OVC027 07/05 Q1004
14:50
M
6 °C 8 km 2.600 ft 020° 020° 7 kt METAR EDLN 261350Z 02007KT 8000 -RA FEW010 BKN026 OVC034 06/05 Q1004
14:20
M
6 °C 8 km 2.600 ft 030° 030° 8 kt METAR EDLN 261320Z 03008KT 360V070 8000 -RA FEW009 SCT020 OVC026 06/05 Q1004
13:50
M
6 °C 9 km 2.700 ft 030° 030° 8 kt METAR EDLN 261250Z 03008KT 9000 -RA FEW010 OVC027 06/05 Q1003
13:20
M
6 °C 10 km+ 2.500 ft 040° 040° 11 kt METAR EDLN 261220Z 04011KT 010V070 9999 -RA OVC025 06/05 Q1003
12:50
M
6 °C 10 km+ 2.400 ft 040° 040° 9 kt METAR EDLN 261150Z 04009KT 360V060 9999 -RA FEW007 BKN024 OVC031 06/05 Q1002
12:20
V
6 °C 8 km 3.500 ft 040° 040° 8 kt METAR EDLN 261120Z 04008KT 010V070 8000 -RA FEW023 OVC035 06/05 Q1002
11:50
V
6 °C 8 km 3.700 ft 050° 050° 8 kt METAR EDLN 261050Z 05008KT 8000 -RA FEW023 OVC037 06/05 Q1002
11:20
M
5 °C 8 km 2.800 ft 040° 040° 8 kt METAR EDLN 261020Z 04008KT 010V070 8000 -RA FEW023 OVC028 05/04 Q1002
10:50
M
5 °C 10 km+ 2.800 ft 040° 040° 8 kt METAR EDLN 260950Z 04008KT 010V070 9999 -RA FEW023 OVC028 05/04 Q1001
10:20
M
5 °C 10 km+ 2.400 ft 040° 040° 8 kt METAR EDLN 260920Z 04008KT 010V080 9999 -RA BKN024 OVC030 05/04 Q1001
09:50
M
5 °C 10 km+ 2.400 ft 050° 050° 8 kt METAR EDLN 260850Z 05008KT 9999 -RA OVC024 05/04 Q1000
09:20
M
5 °C 10 km+ 2.400 ft 050° 050° 7 kt METAR EDLN 260820Z 05007KT 9999 -RA BKN024 OVC030 05/04 Q1000
08:50
M
5 °C 10 km+ 2.500 ft 060° 060° 10 kt METAR EDLN 260750Z 06010KT 9999 -RA OVC025 05/04 Q1000
08:20
M
5 °C 10 km+ 2.500 ft 050° 050° 9 kt METAR EDLN 260720Z 05009KT 020V080 9999 -RA OVC025 05/04 Q1000
07:50
M
5 °C 10 km+ 2.500 ft 050° 050° 9 kt METAR EDLN 260650Z 05009KT 9999 -RA OVC025 05/03 Q0999
07:20
M
5 °C 10 km+ 2.600 ft 050° 050° 8 kt METAR EDLN 260620Z AUTO 05008KT 020V080 9999 // OVC026/// 05/04 Q0999
06:50
M
5 °C 10 km+ 2.600 ft 050° 050° 7 kt METAR EDLN 260550Z AUTO 05007KT 9999 // OVC026/// 05/04 Q0999
06:20
M
5 °C 10 km+ 2.900 ft 040° 040° 9 kt METAR EDLN 260520Z AUTO 04009KT 010V070 9999 // OVC029/// 05/04 Q0998
05:50
V
5 °C 10 km+ 3.100 ft 040° 040° 8 kt METAR EDLN 260450Z AUTO 04008KT 9999 // BKN031/// OVC035/// 05/03 Q0998
05:20
V
5 °C 10 km+ 3.200 ft 040° 040° 9 kt METAR EDLN 260420Z AUTO 04009KT 9999 // FEW019/// BKN032/// OVC056/// 05/03 Q0998
04:50
V
5 °C 10 km+ 3.400 ft 040° 040° 8 kt METAR EDLN 260350Z AUTO 04008KT 9999 // OVC034/// 05/04 Q0998
04:20
V
6 °C 10 km+ 3.500 ft 050° 050° 8 kt METAR EDLN 260320Z AUTO 05008KT 9999 // BKN035/// OVC050/// 06/04 Q0998
03:50
V
5 °C 10 km+ 4.400 ft 040° 040° 7 kt METAR EDLN 260250Z AUTO 04007KT 010V070 9999 // SCT033/// BKN044/// OVC057/// 05/04 Q0998
03:20
V
6 °C 10 km+ 3.400 ft 040° 040° 6 kt METAR EDLN 260220Z AUTO 04006KT 9999 // BKN034/// OVC039/// 06/03 Q0998
02:50
V
6 °C 10 km+ 3.700 ft 050° 050° 5 kt METAR EDLN 260150Z AUTO 05005KT 9999 // BKN037/// BKN047/// OVC055/// 06/03 Q0998
02:20
V
6 °C 10 km+ 3.600 ft 040° 040° 5 kt METAR EDLN 260120Z AUTO 04005KT 9999 // BKN036/// OVC058/// 06/03 Q0998
01:50
V
6 °C 10 km+ 5.900 ft 040° 040° 4 kt METAR EDLN 260050Z AUTO 04004KT 9999 // BKN059/// OVC068/// 06/03 Q0998
01:20
V
6 °C 10 km+ 7.200 ft 050° 050° 4 kt METAR EDLN 260020Z AUTO 05004KT 9999 // SCT056/// BKN072/// OVC090/// 06/02 Q0998
00:50
V
6 °C 10 km+ 6.200 ft 100° 100° 3 kt METAR EDLN 252350Z AUTO 10003KT 060V130 9999 // BKN062/// OVC079/// 06/02 Q0998
00:20
V
7 °C 10 km+ 6.100 ft 070° 070° 6 kt METAR EDLN 252320Z AUTO 07006KT 9999 // OVC061/// 07/02 Q0998

25 februari 2024

Tijd Code Weer Temp. Zicht Plafond Wind METAR/SPECI
23:50
V
7 °C 10 km+ 5.800 ft 060° 060° 7 kt METAR EDLN 252250Z AUTO 06007KT 9999 // OVC058/// 07/02 Q0998
23:20
V
6 °C 10 km+ 7.800 ft 070° 070° 5 kt METAR EDLN 252220Z AUTO 07005KT 9999 // SCT063/// OVC078/// 06/02 Q0998
22:50
V
7 °C 10 km+ 10.000 ft 060° 060° 5 kt METAR EDLN 252150Z AUTO 06005KT 9999 // FEW080/// OVC100/// 07/02 Q0998
22:20
V
7 °C 10 km+ 12.000 ft 070° 070° 5 kt METAR EDLN 252120Z AUTO 07005KT 9999 // SCT100/// OVC120/// 07/02 Q0999
21:50
V
7 °C 10 km+ 12.000 ft 080° 080° 8 kt METAR EDLN 252050Z AUTO 08008KT 9999 // BKN120/// OVC200/// 07/02 Q0999
21:20
V
6 °C 10 km+ 21.000 ft 100° 100° 8 kt METAR EDLN 252020Z AUTO 10008KT 9999 // SCT120/// BKN210/// 06/02 Q0999
20:50
V
5 °C 10 km+ - 100° 100° 7 kt METAR EDLN 251950Z AUTO 10007KT 9999 // FEW110/// SCT240/// 05/02 Q0999
20:20
V
4 °C 10 km+ - 090° 090° 5 kt METAR EDLN 251920Z 09005KT CAVOK 04/02 Q0999
19:50
V
5 °C 10 km+ - 070° 070° 3 kt METAR EDLN 251850Z 07003KT CAVOK 05/03 Q0999
19:20
V
6 °C 10 km+ - 080° 080° 4 kt METAR EDLN 251820Z 08004KT CAVOK 06/03 Q1000
18:50
V
6 °C 10 km+ - 090° 090° 3 kt METAR EDLN 251750Z 09003KT 060V120 CAVOK 06/04 Q1000
18:20
V
7 °C 10 km+ - 090° 090° 3 kt METAR EDLN 251720Z 09003KT 070V130 CAVOK 07/03 Q0999
17:50
V
7 °C 10 km+ - 110° 110° 6 kt METAR EDLN 251650Z 11006KT CAVOK 07/04 Q0999
17:20
V
8 °C 10 km+ - 090° 090° 6 kt METAR EDLN 251620Z 09006KT CAVOK 08/04 Q0999
16:50
V
9 °C 10 km+ - Var Var 2 kt METAR EDLN 251550Z VRB02KT 9999 FEW048 09/02 Q1000
16:20
V
9 °C 10 km+ - 160° 160° 3 kt METAR EDLN 251520Z 16003KT 090V190 9999 FEW044 09/02 Q1000
15:50
V
9 °C 10 km+ - 160° 160° 5 kt METAR EDLN 251450Z 16005KT 130V200 9999 09/03 Q1000
15:20
V
8 °C 10 km+ - 170° 170° 9 kt METAR EDLN 251420Z 17009KT 120V210 9999 FEW024 SCT035 08/03 Q1001
14:50
V
9 °C 10 km+ - 180° 180° 6 kt METAR EDLN 251350Z 18006KT 110V210 9999 SCT038 09/04 Q1001
14:20
V
8 °C 10 km+ - 210° 210° 8 - 18 kt METAR EDLN 251320Z 21008G18KT 180V250 9999 VCSH FEW012TCU SCT027 08/04 Q1001
13:50
V
9 °C 10 km+ 3.700 ft 200° 200° 9 kt METAR EDLN 251250Z 20009KT 9999 BKN037 BKN045 09/01 Q1001
13:20
V
10 °C 10 km+ - 210° 210° 7 kt METAR EDLN 251220Z 21007KT 180V250 9999 SCT037 SCT047 10/02 Q1001
12:50
V
9 °C 10 km+ 3.800 ft 190° 190° 10 kt METAR EDLN 251150Z 19010KT 160V220 9999 FEW033 BKN038 09/02 Q1001
12:20
V
10 °C 10 km+ 3.800 ft 190° 190° 9 kt METAR EDLN 251120Z 19009KT 9999 FEW032 BKN038 10/02 Q1001
11:50
V
9 °C 10 km+ 4.600 ft 200° 200° 10 kt METAR EDLN 251050Z 20010KT 9999 FEW028 BKN046 09/03 Q1002
11:20
V
8 °C 10 km+ 3.500 ft 200° 200° 8 kt METAR EDLN 251020Z 20008KT 180V240 9999 SCT027 BKN035 08/02 Q1002
10:50
M
8 °C 10 km+ 2.600 ft 190° 190° 9 kt METAR EDLN 250950Z 19009KT 9999 BKN026 08/03 Q1002
10:20
V
7 °C 10 km+ - 180° 180° 8 kt METAR EDLN 250920Z 18008KT 150V210 CAVOK 07/03 Q1002
09:50
V
7 °C 10 km+ 4.600 ft 180° 180° 6 kt METAR EDLN 250850Z 18006KT 160V220 9999 FEW028 BKN046 07/03 Q1002
09:20
V
7 °C 10 km+ - 180° 180° 7 kt METAR EDLN 250820Z 18007KT 150V220 9999 07/03 Q1002
08:50
V
6 °C 10 km+ - 180° 180° 6 kt METAR EDLN 250750Z 18006KT 150V210 9999 SCT042 06/03 Q1002
08:20
V
5 °C 10 km+ 4.000 ft 170° 170° 5 kt METAR EDLN 250720Z 17005KT 140V200 9999 SCT027 BKN040 05/03 Q1002
07:50
V
5 °C 10 km+ - 170° 170° 4 kt METAR EDLN 250650Z 17004KT 120V200 9999 SCT031 05/02 Q1001
07:20
V
5 °C 10 km+ 6.700 ft 160° 160° 5 kt METAR EDLN 250620Z AUTO 16005KT 130V190 9999 // FEW025/// SCT033/// OVC067/// 05/02 Q1001
06:50
V
6 °C 10 km+ 5.100 ft 170° 170° 6 kt METAR EDLN 250550Z AUTO 17006KT 140V210 9999 // FEW024/// BKN051/// OVC069/// 06/02 Q1001